createdAt,value
2022-11-26T00:01:20.713Z,101653.59
2022-11-26T00:04:09.021Z,101649.56
2022-11-26T00:06:56.365Z,101645.81
2022-11-26T00:09:44.406Z,101645.28
2022-11-26T00:12:34.276Z,101659.19
2022-11-26T00:15:27.619Z,101659.69
2022-11-26T00:18:20.658Z,101659.13
2022-11-26T00:21:18.540Z,101679.25
2022-11-26T00:24:12.721Z,101668.19
2022-11-26T00:27:00.619Z,101673.56
2022-11-26T00:29:48.659Z,101677.06
2022-11-26T00:32:35.937Z,101684.22
2022-11-26T00:35:24.358Z,101693.34
2022-11-26T00:38:16.713Z,101692.75
2022-11-26T00:41:11.890Z,101701.41
2022-11-26T00:43:59.281Z,101698.09
2022-11-26T00:46:47.451Z,101694.91
2022-11-26T00:49:34.872Z,101702.69
2022-11-26T00:52:32.348Z,101714.50
2022-11-26T00:55:32.528Z,101706.69
2022-11-26T00:58:22.968Z,101716.63
2022-11-26T01:01:17.659Z,101722.22
2022-11-26T01:04:05.437Z,101723.84
2022-11-26T01:06:56.154Z,101726.53
2022-11-26T01:09:46.045Z,101725.16
2022-11-26T01:12:33.564Z,101728.09
2022-11-26T01:15:23.884Z,101737.19
2022-11-26T01:18:17.086Z,101739.34
2022-11-26T01:21:04.556Z,101739.06
2022-11-26T01:23:52.043Z,101753.31
2022-11-26T01:26:44.464Z,101751.91
2022-11-26T01:29:31.920Z,101754.34
2022-11-26T01:32:19.274Z,101754.88
2022-11-26T01:35:07.420Z,101768.00
2022-11-26T01:37:55.472Z,101765.56
2022-11-26T01:40:57.368Z,101767.69
2022-11-26T01:43:45.948Z,101773.28
2022-11-26T01:46:37.837Z,101769.78
2022-11-26T01:49:33.533Z,101772.47
2022-11-26T01:52:24.861Z,101781.09
2022-11-26T01:55:17.579Z,101773.00
2022-11-26T01:58:07.659Z,101781.25
2022-11-26T02:00:55.653Z,101790.16
2022-11-26T02:04:16.156Z,101797.44
2022-11-26T02:07:04.499Z,101794.22
2022-11-26T02:09:51.892Z,101795.53
2022-11-26T02:12:40.865Z,101793.91
2022-11-26T02:15:32.677Z,101800.78
2022-11-26T02:18:22.464Z,101808.25
2022-11-26T02:21:17.809Z,101811.75
2022-11-26T02:24:05.518Z,101816.31
2022-11-26T02:27:12.817Z,101811.13
2022-11-26T02:30:12.298Z,101814.56
2022-11-26T02:33:06.813Z,101823.19
2022-11-26T02:36:01.022Z,101829.03
2022-11-26T02:38:48.436Z,101830.91
2022-11-26T02:41:49.934Z,101840.81
2022-11-26T02:44:45.031Z,101848.31
2022-11-26T02:47:33.635Z,101845.63
2022-11-26T02:50:36.737Z,101846.69
2022-11-26T02:53:26.795Z,101847.81
2022-11-26T02:56:19.439Z,101862.03
2022-11-26T02:59:07.453Z,101856.09
2022-11-26T03:02:03.526Z,101860.97
2022-11-26T03:04:56.022Z,101857.72
2022-11-26T03:07:46.416Z,101866.81
2022-11-26T03:10:33.917Z,101869.03
2022-11-26T03:13:21.338Z,101865.19
2022-11-26T03:16:08.789Z,101880.56
2022-11-26T03:18:56.268Z,101878.94
2022-11-26T03:21:43.667Z,101882.09
2022-11-26T03:24:32.525Z,101884.53
2022-11-26T03:27:19.860Z,101898.53
2022-11-26T03:30:07.920Z,101889.19
2022-11-26T03:32:55.616Z,101893.97
2022-11-26T03:35:43.089Z,101891.28
2022-11-26T03:38:30.426Z,101896.31
2022-11-26T03:41:17.724Z,101890.91
2022-11-26T03:44:05.339Z,101898.69
2022-11-26T03:46:52.755Z,101901.84
2022-11-26T03:49:40.379Z,101898.19
2022-11-26T03:52:27.717Z,101903.00
2022-11-26T03:55:15.562Z,101908.91
2022-11-26T03:58:03.192Z,101906.81
2022-11-26T04:00:50.557Z,101911.69
2022-11-26T04:03:38.888Z,101911.69
2022-11-26T04:06:26.553Z,101920.81
2022-11-26T04:09:13.930Z,101923.47
2022-11-26T04:12:01.261Z,101930.47
2022-11-26T04:14:50.032Z,101922.44
2022-11-26T04:17:37.324Z,101931.47
2022-11-26T04:20:24.731Z,101933.63
2022-11-26T04:23:12.187Z,101925.00
2022-11-26T04:26:00.070Z,101926.66
2022-11-26T04:28:47.439Z,101934.22
2022-11-26T04:31:34.840Z,101936.91
2022-11-26T04:34:22.273Z,101940.38
2022-11-26T04:37:09.664Z,101948.44
2022-11-26T04:39:57.065Z,101964.84
2022-11-26T04:42:44.469Z,101957.53
2022-11-26T04:45:31.828Z,101959.16
2022-11-26T04:48:19.992Z,101966.47
2022-11-26T04:51:08.466Z,101959.97
2022-11-26T04:53:56.059Z,101975.63
2022-11-26T04:56:44.660Z,101980.38
2022-11-26T04:59:32.075Z,101984.03
2022-11-26T05:02:19.456Z,101977.38
2022-11-26T05:05:07.376Z,101981.44
2022-11-26T05:07:54.729Z,101978.75
2022-11-26T05:10:42.694Z,101984.38
2022-11-26T05:13:30.014Z,101977.72
2022-11-26T05:16:17.508Z,101982.25
2022-11-26T05:19:05.343Z,101986.22
2022-11-26T05:21:53.052Z,101995.06
2022-11-26T05:24:40.530Z,101993.16
2022-11-26T05:27:28.552Z,101997.34
2022-11-26T05:30:16.157Z,102002.81
2022-11-26T05:33:03.909Z,102002.72
2022-11-26T05:35:51.351Z,102008.91
2022-11-26T05:38:38.741Z,102002.66
2022-11-26T05:41:26.250Z,102004.94
2022-11-26T05:44:13.593Z,102012.00
2022-11-26T05:47:03.261Z,102022.53
2022-11-26T05:49:50.729Z,102015.66
2022-11-26T05:52:38.120Z,102023.94
2022-11-26T05:55:25.853Z,102032.16
2022-11-26T05:58:13.216Z,102019.47
2022-11-26T06:01:00.654Z,102027.94
2022-11-26T06:03:48.203Z,102027.13
2022-11-26T06:06:35.713Z,102034.94
2022-11-26T06:09:23.892Z,102041.81
2022-11-26T06:12:11.583Z,102036.81
2022-11-26T06:14:58.901Z,102047.09
2022-11-26T06:17:46.374Z,102051.41
2022-11-26T06:20:33.780Z,102056.19
2022-11-26T06:23:21.193Z,102059.63
2022-11-26T06:26:10.488Z,102070.63
2022-11-26T06:28:57.862Z,102077.84
2022-11-26T06:31:45.436Z,102071.09
2022-11-26T06:34:33.039Z,102079.38
2022-11-26T06:37:20.386Z,102093.59
2022-11-26T06:40:09.546Z,102099.53
2022-11-26T06:42:57.001Z,102099.34
2022-11-26T06:45:44.365Z,102104.50
2022-11-26T06:48:32.448Z,102112.31
2022-11-26T06:51:21.847Z,102092.94
2022-11-26T06:54:09.219Z,102098.66
2022-11-26T06:56:56.556Z,102095.75
2022-11-26T06:59:43.891Z,102110.34
2022-11-26T07:02:31.468Z,102105.13
2022-11-26T07:05:19.169Z,102101.72
2022-11-26T07:08:06.522Z,102112.22
2022-11-26T07:10:53.982Z,102121.41
2022-11-26T07:13:42.527Z,102118.47
2022-11-26T07:16:30.148Z,102121.41
2022-11-26T07:19:18.717Z,102135.31
2022-11-26T07:22:07.498Z,102133.09
2022-11-26T07:24:54.855Z,102138.22
2022-11-26T07:27:44.589Z,102143.00
2022-11-26T07:30:32.180Z,102136.34
2022-11-26T07:33:20.573Z,102138.94
2022-11-26T07:36:24.098Z,102143.00
2022-11-26T07:39:11.911Z,102143.34
2022-11-26T07:41:59.611Z,102145.47
2022-11-26T07:44:46.974Z,102152.78
2022-11-26T07:47:34.308Z,102157.31
2022-11-26T07:50:22.865Z,102160.81
2022-11-26T07:53:10.272Z,102162.13
2022-11-26T07:55:57.768Z,102151.81
2022-11-26T07:58:45.506Z,102155.88
2022-11-26T08:01:33.297Z,102156.94
2022-11-26T08:04:21.226Z,102157.44
2022-11-26T08:07:08.756Z,102160.75
2022-11-26T08:09:56.344Z,102162.63
2022-11-26T08:12:44.127Z,102176.03
2022-11-26T08:15:35.631Z,102184.34
2022-11-26T08:18:23.339Z,102179.53
2022-11-26T08:21:10.949Z,102185.88
2022-11-26T08:23:58.615Z,102188.22
2022-11-26T08:26:46.262Z,102190.00
2022-11-26T08:29:36.603Z,102189.28
2022-11-26T08:32:24.178Z,102197.91
2022-11-26T08:35:12.598Z,102200.69
2022-11-26T08:37:59.984Z,102206.28
2022-11-26T08:40:47.640Z,102216.47
2022-11-26T08:44:04.462Z,102210.97
2022-11-26T08:46:43.634Z,102203.16
2022-11-26T08:49:31.421Z,102212.50
2022-11-26T08:52:20.173Z,102207.16
2022-11-26T08:55:07.978Z,102216.34
2022-11-26T08:57:55.473Z,102218.19
2022-11-26T09:00:42.876Z,102213.41
2022-11-26T09:03:32.440Z,102213.78
2022-11-26T09:06:21.991Z,102223.78
2022-11-26T09:09:14.011Z,102223.38
2022-11-26T09:12:02.572Z,102224.03
2022-11-26T09:14:49.974Z,102219.13
2022-11-26T09:17:37.550Z,102217.72
2022-11-26T09:20:24.952Z,102228.13
2022-11-26T09:23:12.508Z,102226.00
2022-11-26T09:26:00.100Z,102230.81
2022-11-26T09:28:48.772Z,102237.88
2022-11-26T09:31:36.412Z,102228.03
2022-11-26T09:34:24.313Z,102230.50
2022-11-26T09:37:11.849Z,102230.50
2022-11-26T09:39:59.183Z,102222.09
2022-11-26T09:43:04.424Z,102249.50
2022-11-26T09:45:56.177Z,102241.72
2022-11-26T09:48:44.209Z,102235.00
2022-11-26T09:51:33.991Z,102231.41
2022-11-26T09:54:23.625Z,102247.16
2022-11-26T09:57:27.842Z,102254.28
2022-11-26T10:00:42.611Z,102257.09
2022-11-26T10:03:37.337Z,102257.91
2022-11-26T10:06:50.105Z,102264.91
2022-11-26T10:09:49.825Z,102267.13
2022-11-26T10:13:17.802Z,102272.03
2022-11-26T10:16:25.023Z,102272.19
2022-11-26T10:19:34.496Z,102272.38
2022-11-26T10:22:30.311Z,102278.13
2022-11-26T10:25:21.322Z,102271.56
2022-11-26T10:28:21.765Z,102293.94
2022-11-26T10:31:17.902Z,102293.34
2022-11-26T10:34:14.334Z,102299.97
2022-11-26T10:37:01.862Z,102297.53
2022-11-26T10:39:58.547Z,102305.34
2022-11-26T10:43:08.836Z,102308.63
2022-11-26T10:45:57.144Z,102320.72
2022-11-26T10:48:44.674Z,102320.56
2022-11-26T10:51:33.499Z,102312.00
2022-11-26T10:54:29.721Z,102314.53
2022-11-26T10:57:19.513Z,102316.91
2022-11-26T11:00:25.810Z,102315.13
2022-11-26T11:03:59.766Z,102319.19
2022-11-26T11:06:42.299Z,102322.78
2022-11-26T11:09:32.559Z,102329.78
2022-11-26T11:12:23.617Z,102321.88
2022-11-26T11:15:20.666Z,102329.59
2022-11-26T11:18:22.144Z,102331.97
2022-11-26T11:21:17.524Z,102349.47
2022-11-26T11:24:15.645Z,102346.41
2022-11-26T11:27:03.462Z,102346.78
2022-11-26T11:29:51.824Z,102351.09
2022-11-26T11:32:40.938Z,102356.59
2022-11-26T11:35:31.120Z,102349.00
2022-11-26T11:38:24.911Z,102347.38
2022-11-26T11:41:23.738Z,102345.31
2022-11-26T11:44:20.206Z,102356.75
2022-11-26T11:47:35.617Z,102355.66
2022-11-26T11:50:34.201Z,102369.19
2022-11-26T11:53:52.651Z,102362.34
2022-11-26T11:56:52.984Z,102366.00
2022-11-26T12:00:19.370Z,102374.91
2022-11-26T12:03:21.943Z,102384.34
2022-11-26T12:06:46.997Z,102389.16
2022-11-26T12:09:51.482Z,102387.53
2022-11-26T12:12:45.566Z,102390.69
2022-11-26T12:15:42.940Z,102389.47
2022-11-26T12:18:40.101Z,102393.31
2022-11-26T12:21:51.237Z,102392.44
2022-11-26T12:24:52.916Z,102404.78
2022-11-26T12:27:52.585Z,102398.69
2022-11-26T12:30:46.393Z,102401.94
2022-11-26T12:33:43.810Z,102405.56
2022-11-26T12:36:36.246Z,102403.03
2022-11-26T12:39:49.215Z,102406.34
2022-11-26T12:42:47.711Z,102406.41
2022-11-26T12:45:56.914Z,102406.19
2022-11-26T12:49:08.098Z,102405.22
2022-11-26T12:52:13.994Z,102396.72
2022-11-26T12:55:19.720Z,102394.59
2022-11-26T12:58:21.827Z,102399.00
2022-11-26T13:01:10.998Z,102398.50
2022-11-26T13:04:29.566Z,102397.00
2022-11-26T13:07:22.933Z,102399.69
2022-11-26T13:10:32.896Z,102405.91
2022-11-26T13:13:39.317Z,102402.72
2022-11-26T13:16:37.850Z,102407.28
2022-11-26T13:19:36.682Z,102407.41
2022-11-26T13:22:43.229Z,102410.94
2022-11-26T13:25:50.259Z,102411.28
2022-11-26T13:29:13.015Z,102418.38
2022-11-26T13:32:30.823Z,102426.69
2022-11-26T13:35:25.347Z,102424.06
2022-11-26T13:38:54.437Z,102417.28
2022-11-26T13:41:44.953Z,102422.19
2022-11-26T13:44:49.283Z,102405.06
2022-11-26T13:47:46.151Z,102417.47
2022-11-26T13:50:46.827Z,102407.53
2022-11-26T13:53:46.593Z,102419.09
2022-11-26T13:56:37.634Z,102420.88
2022-11-26T13:59:28.517Z,102421.91
2022-11-26T14:02:37.166Z,102433.47
2022-11-26T14:05:50.543Z,102436.06
2022-11-26T14:08:44.377Z,102434.69
2022-11-26T14:11:41.271Z,102441.97
2022-11-26T14:14:28.660Z,102441.47
2022-11-26T14:17:28.978Z,102439.91
2022-11-26T14:20:20.264Z,102436.72
2022-11-26T14:23:42.158Z,102435.34
2022-11-26T14:26:40.253Z,102422.44
2022-11-26T14:29:28.698Z,102434.69
2022-11-26T14:32:23.388Z,102432.25
2022-11-26T14:35:34.627Z,102429.06
2022-11-26T14:38:28.068Z,102435.69
2022-11-26T14:41:15.531Z,102431.47
2022-11-26T14:44:08.452Z,102438.41
2022-11-26T14:46:59.382Z,102430.91
2022-11-26T14:49:49.789Z,102432.78
2022-11-26T14:52:40.309Z,102435.28
2022-11-26T14:55:30.390Z,102431.88
2022-11-26T14:58:32.995Z,102430.00
2022-11-26T15:01:29.221Z,102428.31
2022-11-26T15:04:31.390Z,102434.25
2022-11-26T15:07:25.628Z,102424.81
2022-11-26T15:10:16.183Z,102430.19
2022-11-26T15:13:10.602Z,102428.47
2022-11-26T15:16:00.614Z,102438.63
2022-11-26T15:18:49.994Z,102439.69
2022-11-26T15:21:40.773Z,102433.47
2022-11-26T15:24:28.723Z,102429.47
2022-11-26T15:27:38.552Z,102427.56
2022-11-26T15:30:31.223Z,102423.56
2022-11-26T15:33:19.301Z,102431.88
2022-11-26T15:36:11.575Z,102424.88
2022-11-26T15:39:07.411Z,102432.56
2022-11-26T15:41:58.159Z,102433.56
2022-11-26T15:44:49.285Z,102424.34
2022-11-26T15:47:36.829Z,102420.53
2022-11-26T15:50:46.468Z,102425.91
2022-11-26T15:53:37.781Z,102429.13
2022-11-26T15:56:29.209Z,102420.28
2022-11-26T15:59:19.626Z,102429.06
2022-11-26T16:02:38.671Z,102419.38
2022-11-26T16:05:39.615Z,102423.13
2022-11-26T16:08:32.905Z,102423.97
2022-11-26T16:11:21.571Z,102424.19
2022-11-26T16:14:42.177Z,102432.19
2022-11-26T16:17:30.156Z,102441.28
2022-11-26T16:20:26.460Z,102443.41
2022-11-26T16:23:32.165Z,102452.72
2022-11-26T16:26:19.839Z,102455.16
2022-11-26T16:29:10.000Z,102455.41
2022-11-26T16:31:57.906Z,102458.91
2022-11-26T16:34:46.731Z,102459.78
2022-11-26T16:37:44.215Z,102465.97
2022-11-26T16:40:31.774Z,102475.78
2022-11-26T16:43:21.393Z,102455.03
2022-11-26T16:46:16.858Z,102459.03
2022-11-26T16:49:04.738Z,102453.88
2022-11-26T16:51:52.734Z,102449.91
2022-11-26T16:54:44.593Z,102449.09
2022-11-26T16:57:32.005Z,102448.59
2022-11-26T17:00:24.685Z,102454.25
2022-11-26T17:06:31.775Z,102432.03
2022-11-26T17:09:19.910Z,102437.41
2022-11-26T17:12:21.412Z,102434.41
2022-11-26T17:15:09.258Z,102435.72
2022-11-26T17:18:02.475Z,102438.88
2022-11-26T17:20:51.619Z,102444.63
2022-11-26T17:23:39.010Z,102446.91
2022-11-26T17:26:26.542Z,102449.94
2022-11-26T17:29:14.221Z,102455.75
2022-11-26T17:32:23.820Z,102461.22
2022-11-26T17:35:11.822Z,102474.16
2022-11-26T17:37:59.138Z,102465.22
2022-11-26T17:40:47.520Z,102466.50
2022-11-26T17:43:36.351Z,102471.53
2022-11-26T17:46:24.057Z,102463.47
2022-11-26T17:49:11.539Z,102470.00
2022-11-26T17:51:59.105Z,102467.66
2022-11-26T17:54:47.236Z,102459.38
2022-11-26T17:57:35.203Z,102457.13
2022-11-26T18:00:28.421Z,102461.03
2022-11-26T18:03:15.952Z,102461.50
2022-11-26T18:06:03.255Z,102474.47
2022-11-26T18:08:50.654Z,102473.06
2022-11-26T18:11:50.316Z,102470.97
2022-11-26T18:14:41.356Z,102466.66
2022-11-26T18:17:28.885Z,102470.97
2022-11-26T18:20:21.559Z,102477.72
2022-11-26T18:23:09.273Z,102478.81
2022-11-26T18:25:56.647Z,102471.94
2022-11-26T18:28:44.355Z,102484.31
2022-11-26T18:31:36.655Z,102480.22
2022-11-26T18:34:26.863Z,102476.31
2022-11-26T18:37:15.034Z,102476.31
2022-11-26T18:40:02.640Z,102484.91
2022-11-26T18:42:53.420Z,102483.78
2022-11-26T18:45:42.234Z,102477.25
2022-11-26T18:48:29.732Z,102475.81
2022-11-26T18:51:17.326Z,102480.13
2022-11-26T18:54:04.983Z,102474.53
2022-11-26T18:56:52.496Z,102483.88
2022-11-26T18:59:40.283Z,102471.63
2022-11-26T19:02:27.973Z,102476.41
2022-11-26T19:05:15.437Z,102481.31
2022-11-26T19:08:03.089Z,102474.16
2022-11-26T19:10:50.508Z,102475.81
2022-11-26T19:13:37.999Z,102469.47
2022-11-26T19:16:26.421Z,102480.22
2022-11-26T19:19:13.797Z,102472.06
2022-11-26T19:22:01.992Z,102465.41
2022-11-26T19:24:49.650Z,102454.66
2022-11-26T19:27:37.178Z,102457.13
2022-11-26T19:30:24.554Z,102459.56
2022-11-26T19:33:12.286Z,102453.34
2022-11-26T19:36:04.716Z,102447.03
2022-11-26T19:38:56.362Z,102444.91
2022-11-26T19:41:44.564Z,102454.13
2022-11-26T19:44:33.497Z,102454.13
2022-11-26T19:47:20.870Z,102449.34
2022-11-26T19:50:09.493Z,102448.16
2022-11-26T19:52:56.899Z,102446.06
2022-11-26T19:55:44.241Z,102444.19
2022-11-26T19:58:33.539Z,102450.53
2022-11-26T20:01:22.032Z,102440.69
2022-11-26T20:04:14.172Z,102442.16
2022-11-26T20:07:01.450Z,102446.72
2022-11-26T20:09:52.558Z,102448.97
2022-11-26T20:12:40.013Z,102446.84
2022-11-26T20:15:27.666Z,102446.97
2022-11-26T20:18:15.713Z,102456.91
2022-11-26T20:21:06.360Z,102449.94
2022-11-26T20:23:57.133Z,102460.91
2022-11-26T20:26:46.254Z,102462.66
2022-11-26T20:29:33.659Z,102452.06
2022-11-26T20:32:21.740Z,102445.97
2022-11-26T20:35:09.276Z,102449.16
2022-11-26T20:37:56.726Z,102438.06
2022-11-26T20:40:44.803Z,102445.41
2022-11-26T20:43:34.039Z,102441.09
2022-11-26T20:46:21.851Z,102435.38
2022-11-26T20:49:12.040Z,102444.84
2022-11-26T20:51:59.379Z,102441.09
2022-11-26T20:54:52.168Z,102430.47
2022-11-26T20:57:41.289Z,102426.97
2022-11-26T21:00:28.866Z,102433.38
2022-11-26T21:03:16.345Z,102432.31
2022-11-26T21:06:06.326Z,102433.53
2022-11-26T21:08:53.732Z,102427.81
2022-11-26T21:11:41.526Z,102418.94
2022-11-26T21:14:29.890Z,102422.44
2022-11-26T21:17:17.396Z,102423.44
2022-11-26T21:20:06.361Z,102418.16
2022-11-26T21:22:54.107Z,102412.69
2022-11-26T21:25:42.881Z,102414.31
2022-11-26T21:28:30.236Z,102413.97
2022-11-26T21:31:18.371Z,102412.31
2022-11-26T21:34:08.187Z,102415.63
2022-11-26T21:36:55.850Z,102418.41
2022-11-26T21:39:43.359Z,102424.72
2022-11-26T21:42:30.943Z,102421.09
2022-11-26T21:45:18.443Z,102413.19
2022-11-26T21:48:06.104Z,102413.44
2022-11-26T21:50:54.149Z,102406.56
2022-11-26T21:53:42.344Z,102411.91
2022-11-26T21:56:31.694Z,102413.06
2022-11-26T21:59:19.401Z,102401.66
2022-11-26T22:02:07.378Z,102413.06
2022-11-26T22:04:54.766Z,102418.59
2022-11-26T22:07:42.363Z,102419.03
2022-11-26T22:10:35.840Z,102412.63
2022-11-26T22:13:23.707Z,102414.03
2022-11-26T22:16:13.968Z,102417.19
2022-11-26T22:19:02.148Z,102410.19
2022-11-26T22:21:49.587Z,102412.75
2022-11-26T22:24:36.943Z,102402.84
2022-11-26T22:27:24.566Z,102395.03
2022-11-26T22:30:12.830Z,102392.44
2022-11-26T22:33:02.010Z,102394.56
2022-11-26T22:35:49.943Z,102399.94
2022-11-26T22:38:39.132Z,102398.97
2022-11-26T22:41:26.595Z,102389.44
2022-11-26T22:44:17.282Z,102387.91
2022-11-26T22:47:04.974Z,102391.16
2022-11-26T22:49:52.632Z,102393.78
2022-11-26T22:52:41.668Z,102386.28
2022-11-26T22:55:29.309Z,102401.81
2022-11-26T22:58:17.036Z,102402.59
2022-11-26T23:01:08.240Z,102403.69
2022-11-26T23:03:58.842Z,102396.44
2022-11-26T23:06:46.564Z,102394.56
2022-11-26T23:09:33.904Z,102394.22
2022-11-26T23:12:23.399Z,102395.75
2022-11-26T23:15:11.498Z,102394.91
2022-11-26T23:17:59.141Z,102392.25
2022-11-26T23:20:46.717Z,102392.94
2022-11-26T23:23:35.193Z,102395.38
2022-11-26T23:26:32.877Z,102397.34
2022-11-26T23:29:20.339Z,102389.78
2022-11-26T23:32:07.682Z,102390.84
2022-11-26T23:34:55.103Z,102390.84
2022-11-26T23:37:42.494Z,102372.38
2022-11-26T23:40:29.890Z,102367.28
2022-11-26T23:43:17.275Z,102356.06
2022-11-26T23:46:17.005Z,102359.94
2022-11-26T23:49:05.414Z,102355.50
2022-11-26T23:51:53.393Z,102339.72
2022-11-26T23:54:41.035Z,102337.63
2022-11-26T23:57:28.415Z,102335.31
